createdAt,value
2023-02-15T00:01:38.775Z,101224.69
2023-02-15T00:04:06.577Z,101224.81
2023-02-15T00:06:33.715Z,101230.66
2023-02-15T00:09:01.188Z,101223.87
2023-02-15T00:11:40.654Z,101223.75
2023-02-15T00:14:08.688Z,101227.13
2023-02-15T00:16:36.225Z,101236.41
2023-02-15T00:19:03.647Z,101231.25
2023-02-15T00:21:33.070Z,101226.16
2023-02-15T00:24:01.129Z,101233.53
2023-02-15T00:26:28.520Z,101232.50
2023-02-15T00:28:55.991Z,101233.37
2023-02-15T00:31:23.535Z,101230.16
2023-02-15T00:33:50.770Z,101228.03
2023-02-15T00:36:17.925Z,101227.88
2023-02-15T00:38:45.392Z,101227.59
2023-02-15T00:41:12.682Z,101228.25
2023-02-15T00:43:39.811Z,101225.38
2023-02-15T00:46:07.978Z,101226.03
2023-02-15T00:48:35.181Z,101227.44
2023-02-15T00:51:02.615Z,101222.31
2023-02-15T00:53:30.561Z,101222.28
2023-02-15T00:55:58.247Z,101225.25
2023-02-15T00:58:25.426Z,101221.16
2023-02-15T01:00:52.896Z,101222.16
2023-02-15T01:03:20.489Z,101220.41
2023-02-15T01:05:47.981Z,101219.97
2023-02-15T01:08:15.749Z,101219.53
2023-02-15T01:10:44.990Z,101219.13
2023-02-15T01:13:12.121Z,101219.03
2023-02-15T01:15:39.623Z,101220.25
2023-02-15T01:18:06.841Z,101217.81
2023-02-15T01:20:35.450Z,101211.38
2023-02-15T01:23:03.075Z,101210.41
2023-02-15T01:25:30.270Z,101212.59
2023-02-15T01:27:57.403Z,101211.69
2023-02-15T01:30:24.883Z,101213.81
2023-02-15T01:32:52.151Z,101215.44
2023-02-15T01:35:19.376Z,101209.19
2023-02-15T01:37:47.447Z,101200.25
2023-02-15T01:40:15.880Z,101192.06
2023-02-15T01:42:45.098Z,101195.47
2023-02-15T01:45:24.645Z,101186.81
2023-02-15T01:47:54.481Z,101193.19
2023-02-15T01:50:23.582Z,101184.47
2023-02-15T01:52:56.682Z,101182.22
2023-02-15T01:55:25.023Z,101183.22
2023-02-15T01:57:52.158Z,101190.38
2023-02-15T02:00:19.751Z,101179.13
2023-02-15T02:02:48.629Z,101178.50
2023-02-15T02:05:15.835Z,101179.97
2023-02-15T02:07:45.138Z,101187.22
2023-02-15T02:10:13.926Z,101184.50
2023-02-15T02:12:41.667Z,101178.72
2023-02-15T02:15:09.721Z,101174.22
2023-02-15T02:17:57.160Z,101176.03
2023-02-15T02:20:27.625Z,101181.78
2023-02-15T02:23:03.987Z,101173.19
2023-02-15T02:25:49.585Z,101176.41
2023-02-15T02:28:42.875Z,101169.19
2023-02-15T02:31:16.432Z,101171.56
2023-02-15T02:33:43.569Z,101170.62
2023-02-15T02:36:13.750Z,101162.16
2023-02-15T02:38:48.132Z,101169.41
2023-02-15T02:41:15.513Z,101177.44
2023-02-15T02:43:50.068Z,101172.25
2023-02-15T02:46:19.764Z,101166.97
2023-02-15T02:48:46.951Z,101179.19
2023-02-15T02:51:15.180Z,101175.72
2023-02-15T02:53:42.992Z,101186.63
2023-02-15T02:56:25.220Z,101182.41
2023-02-15T02:58:55.486Z,101186.94
2023-02-15T03:01:24.954Z,101180.75
2023-02-15T03:03:54.251Z,101181.72
2023-02-15T03:06:27.529Z,101181.22
2023-02-15T03:08:56.454Z,101176.81
2023-02-15T03:11:23.579Z,101185.22
2023-02-15T03:13:51.141Z,101180.03
2023-02-15T03:16:28.651Z,101180.69
2023-02-15T03:19:12.168Z,101187.53
2023-02-15T03:21:50.379Z,101180.44
2023-02-15T03:24:22.819Z,101185.56
2023-02-15T03:26:52.142Z,101181.91
2023-02-15T03:29:20.023Z,101183.16
2023-02-15T03:31:52.001Z,101184.25
2023-02-15T03:34:19.512Z,101194.62
2023-02-15T03:37:07.935Z,101197.13
2023-02-15T03:39:56.224Z,101200.16
2023-02-15T03:42:23.325Z,101194.19
2023-02-15T03:45:02.505Z,101191.75
2023-02-15T03:47:31.210Z,101193.88
2023-02-15T03:50:00.421Z,101191.38
2023-02-15T03:52:27.537Z,101188.06
2023-02-15T03:54:55.661Z,101188.06
2023-02-15T03:57:42.950Z,101185.28
2023-02-15T04:00:31.592Z,101194.81
2023-02-15T04:03:03.181Z,101189.25
2023-02-15T04:05:30.373Z,101191.56
2023-02-15T04:07:57.569Z,101198.19
2023-02-15T04:10:43.721Z,101194.19
2023-02-15T04:13:10.848Z,101196.97
2023-02-15T04:15:56.788Z,101187.88
2023-02-15T04:18:42.430Z,101190.50
2023-02-15T04:21:28.351Z,101184.97
2023-02-15T04:24:13.861Z,101190.03
2023-02-15T04:26:41.296Z,101195.53
2023-02-15T04:29:08.417Z,101196.66
2023-02-15T04:31:35.700Z,101193.84
2023-02-15T04:34:03.169Z,101189.06
2023-02-15T04:36:30.292Z,101189.28
2023-02-15T04:38:57.495Z,101192.09
2023-02-15T04:41:24.963Z,101187.75
2023-02-15T04:43:52.074Z,101194.66
2023-02-15T04:46:19.317Z,101195.56
2023-02-15T04:48:46.850Z,101206.37
2023-02-15T04:51:13.975Z,101200.56
2023-02-15T04:53:41.115Z,101194.13
2023-02-15T04:56:08.535Z,101201.31
2023-02-15T04:58:36.366Z,101199.56
2023-02-15T05:01:03.770Z,101195.81
2023-02-15T05:03:31.258Z,101181.78
2023-02-15T05:05:58.450Z,101184.75
2023-02-15T05:08:25.577Z,101189.66
2023-02-15T05:10:53.036Z,101190.91
2023-02-15T05:13:20.195Z,101191.66
2023-02-15T05:15:48.284Z,101201.84
2023-02-15T05:18:16.007Z,101202.50
2023-02-15T05:20:43.127Z,101206.44
2023-02-15T05:23:10.282Z,101208.06
2023-02-15T05:25:56.225Z,101199.22
2023-02-15T05:28:24.042Z,101205.75
2023-02-15T05:30:52.401Z,101212.59
2023-02-15T05:33:19.645Z,101217.63
2023-02-15T05:35:46.840Z,101220.59
2023-02-15T05:38:14.247Z,101227.59
2023-02-15T05:40:41.426Z,101225.09
2023-02-15T05:43:08.577Z,101230.41
2023-02-15T05:45:35.995Z,101232.50
2023-02-15T05:48:03.172Z,101236.16
2023-02-15T05:50:30.286Z,101241.81
2023-02-15T05:53:00.454Z,101238.50
2023-02-15T05:55:27.897Z,101240.19
2023-02-15T05:57:55.066Z,101239.69
2023-02-15T06:00:22.576Z,101234.56
2023-02-15T06:02:50.158Z,101234.69
2023-02-15T06:05:17.450Z,101225.09
2023-02-15T06:07:45.717Z,101234.50
2023-02-15T06:10:13.166Z,101235.88
2023-02-15T06:12:40.325Z,101245.28
2023-02-15T06:15:07.603Z,101240.19
2023-02-15T06:17:35.105Z,101238.81
2023-02-15T06:20:02.308Z,101244.69
2023-02-15T06:22:29.505Z,101236.34
2023-02-15T06:24:56.993Z,101235.47
2023-02-15T06:27:24.118Z,101237.16
2023-02-15T06:29:51.325Z,101238.34
2023-02-15T06:32:18.804Z,101237.72
2023-02-15T06:34:47.450Z,101237.09
2023-02-15T06:37:15.657Z,101241.31
2023-02-15T06:39:44.013Z,101245.66
2023-02-15T06:42:11.141Z,101246.47
2023-02-15T06:44:38.549Z,101246.28
2023-02-15T06:47:06.032Z,101248.56
2023-02-15T06:49:33.182Z,101250.19
2023-02-15T06:52:00.356Z,101246.34
2023-02-15T06:54:27.817Z,101252.50
2023-02-15T06:56:54.986Z,101252.12
2023-02-15T06:59:22.156Z,101259.44
2023-02-15T07:01:50.217Z,101257.88
2023-02-15T07:04:17.416Z,101253.47
2023-02-15T07:06:44.605Z,101259.91
2023-02-15T07:09:12.495Z,101252.16
2023-02-15T07:11:58.385Z,101248.31
2023-02-15T07:14:27.639Z,101252.78
2023-02-15T07:16:56.065Z,101246.66
2023-02-15T07:19:23.185Z,101246.59
2023-02-15T07:21:50.593Z,101247.16
2023-02-15T07:24:17.804Z,101248.69
2023-02-15T07:26:44.980Z,101240.16
2023-02-15T07:29:12.398Z,101239.66
2023-02-15T07:31:39.568Z,101242.78
2023-02-15T07:34:07.484Z,101254.03
2023-02-15T07:36:34.934Z,101248.62
2023-02-15T07:39:02.110Z,101251.59
2023-02-15T07:41:29.275Z,101245.59
2023-02-15T07:43:56.723Z,101245.72
2023-02-15T07:46:24.006Z,101244.03
2023-02-15T07:48:51.274Z,101240.22
2023-02-15T07:51:18.729Z,101240.56
2023-02-15T07:53:45.982Z,101238.69
2023-02-15T07:56:13.505Z,101231.06
2023-02-15T07:58:53.315Z,101238.56
2023-02-15T08:01:21.603Z,101228.75
2023-02-15T08:03:49.135Z,101230.66
2023-02-15T08:06:16.445Z,101226.69
2023-02-15T08:08:43.611Z,101224.94
2023-02-15T08:11:27.423Z,101230.09
2023-02-15T08:14:14.083Z,101212.09
2023-02-15T08:17:00.480Z,101225.50
2023-02-15T08:19:30.817Z,101225.09
2023-02-15T08:22:07.807Z,101225.56
2023-02-15T08:24:37.798Z,101212.22
2023-02-15T08:27:06.532Z,101217.38
2023-02-15T08:29:34.256Z,101207.69
2023-02-15T08:32:05.467Z,101215.56
2023-02-15T08:34:34.067Z,101212.31
2023-02-15T08:37:01.776Z,101211.12
2023-02-15T08:39:29.669Z,101202.56
2023-02-15T08:41:57.081Z,101202.97
2023-02-15T08:44:24.371Z,101210.37
2023-02-15T08:46:51.784Z,101211.31
2023-02-15T08:49:22.370Z,101219.03
2023-02-15T08:51:49.752Z,101215.00
2023-02-15T08:54:18.008Z,101210.41
2023-02-15T08:56:45.795Z,101202.69
2023-02-15T08:59:22.811Z,101200.69
2023-02-15T09:01:51.053Z,101202.66
2023-02-15T09:04:18.487Z,101198.88
2023-02-15T09:06:48.309Z,101205.97
2023-02-15T09:09:17.033Z,101203.69
2023-02-15T09:11:45.359Z,101203.53
2023-02-15T09:14:14.585Z,101207.50
2023-02-15T09:16:43.429Z,101208.44
2023-02-15T09:19:10.572Z,101206.66
2023-02-15T09:21:38.006Z,101203.22
2023-02-15T09:24:06.673Z,101198.81
2023-02-15T09:26:35.057Z,101203.84
2023-02-15T09:29:03.896Z,101200.44
2023-02-15T09:31:32.503Z,101201.19
2023-02-15T09:34:01.764Z,101211.84
2023-02-15T09:36:33.019Z,101201.06
2023-02-15T09:39:00.506Z,101201.16
2023-02-15T09:41:46.485Z,101200.41
2023-02-15T09:44:14.392Z,101196.16
2023-02-15T09:47:00.366Z,101195.97
2023-02-15T09:49:31.917Z,101195.41
2023-02-15T09:52:02.003Z,101175.72
2023-02-15T09:54:38.538Z,101186.78
2023-02-15T09:57:10.051Z,101180.34
2023-02-15T09:59:56.386Z,101179.37
2023-02-15T10:02:26.557Z,101178.81
2023-02-15T10:05:07.724Z,101175.56
2023-02-15T10:07:43.844Z,101173.84
2023-02-15T10:10:20.394Z,101170.22
2023-02-15T10:12:47.574Z,101150.69
2023-02-15T10:15:15.073Z,101171.47
2023-02-15T10:17:49.265Z,101166.84
2023-02-15T10:20:19.028Z,101160.47
2023-02-15T10:23:02.921Z,101161.66
2023-02-15T10:25:30.907Z,101166.66
2023-02-15T10:28:00.090Z,101163.53
2023-02-15T10:30:27.240Z,101165.56
2023-02-15T10:32:54.680Z,101160.88
2023-02-15T10:35:21.817Z,101160.59
2023-02-15T10:37:48.963Z,101158.63
2023-02-15T10:40:19.576Z,101158.66
2023-02-15T10:43:10.031Z,101155.06
2023-02-15T10:45:42.876Z,101152.37
2023-02-15T10:48:10.021Z,101149.13
2023-02-15T10:50:40.392Z,101148.06
2023-02-15T10:53:33.881Z,101152.19
2023-02-15T10:56:04.472Z,101151.03
2023-02-15T10:58:48.672Z,101143.41
2023-02-15T11:01:28.529Z,101137.56
2023-02-15T11:04:02.205Z,101132.19
2023-02-15T11:06:29.645Z,101115.88
2023-02-15T11:09:06.741Z,101127.78
2023-02-15T11:11:36.125Z,101136.34
2023-02-15T11:14:29.395Z,101131.06
2023-02-15T11:16:58.347Z,101124.75
2023-02-15T11:19:29.985Z,101115.94
2023-02-15T11:22:01.318Z,101113.91
2023-02-15T11:24:29.392Z,101113.16
2023-02-15T11:27:06.795Z,101105.16
2023-02-15T11:29:42.339Z,101102.34
2023-02-15T11:32:24.905Z,101102.72
2023-02-15T11:35:02.758Z,101103.47
2023-02-15T11:37:45.211Z,101101.31
2023-02-15T11:40:20.728Z,101092.03
2023-02-15T11:42:50.881Z,101101.28
2023-02-15T11:45:18.291Z,101089.66
2023-02-15T11:47:45.472Z,101086.00
2023-02-15T11:50:17.682Z,101079.47
2023-02-15T11:52:45.256Z,101082.03
2023-02-15T11:55:16.144Z,101076.50
2023-02-15T11:57:43.703Z,101086.09
2023-02-15T12:00:16.139Z,101065.97
2023-02-15T12:02:46.028Z,101070.00
2023-02-15T12:05:14.735Z,101066.34
2023-02-15T12:07:44.483Z,101070.50
2023-02-15T12:10:15.235Z,101072.13
2023-02-15T12:12:42.666Z,101069.03
2023-02-15T12:15:10.779Z,101070.87
2023-02-15T12:17:42.006Z,101068.94
2023-02-15T12:20:15.137Z,101065.38
2023-02-15T12:22:51.672Z,101061.44
2023-02-15T12:25:22.327Z,101057.75
2023-02-15T12:27:49.920Z,101061.69
2023-02-15T12:30:19.784Z,101054.78
2023-02-15T12:32:57.589Z,101054.97
2023-02-15T12:35:29.161Z,101044.81
2023-02-15T12:37:57.833Z,101048.78
2023-02-15T12:40:27.661Z,101042.56
2023-02-15T12:42:56.078Z,101038.00
2023-02-15T12:45:25.534Z,101043.19
2023-02-15T12:48:11.448Z,101042.84
2023-02-15T12:50:39.308Z,101035.38
2023-02-15T12:53:08.149Z,101027.25
2023-02-15T12:55:35.355Z,101024.72
2023-02-15T12:58:06.402Z,101026.28
2023-02-15T13:00:33.961Z,101014.78
2023-02-15T13:03:01.448Z,101019.94
2023-02-15T13:05:32.887Z,101020.25
2023-02-15T13:08:13.807Z,101016.69
2023-02-15T13:10:54.497Z,101022.47
2023-02-15T13:13:25.951Z,101014.78
2023-02-15T13:15:53.607Z,101021.13
2023-02-15T13:18:30.558Z,101008.78
2023-02-15T13:21:09.917Z,101009.59
2023-02-15T13:23:37.107Z,101017.00
2023-02-15T13:26:05.618Z,100999.72
2023-02-15T13:28:36.416Z,101000.63
2023-02-15T13:31:04.055Z,101000.78
2023-02-15T13:33:32.956Z,100994.16
2023-02-15T13:36:09.672Z,101001.53
2023-02-15T13:38:47.697Z,101005.66
2023-02-15T13:41:17.605Z,100999.16
2023-02-15T13:43:54.220Z,100993.59
2023-02-15T13:46:34.761Z,100992.59
2023-02-15T13:49:04.257Z,100989.16
2023-02-15T13:51:31.427Z,100990.63
2023-02-15T13:54:17.343Z,100986.50
2023-02-15T13:57:03.685Z,100976.00
2023-02-15T13:59:33.986Z,100984.91
2023-02-15T14:02:19.868Z,100984.84
2023-02-15T14:04:54.625Z,100973.00
2023-02-15T14:07:40.937Z,100977.44
2023-02-15T14:10:26.457Z,100981.63
2023-02-15T14:13:01.094Z,100986.69
2023-02-15T14:15:33.666Z,100979.63
2023-02-15T14:18:03.418Z,100974.56
2023-02-15T14:20:46.053Z,100977.47
2023-02-15T14:23:31.980Z,100980.72
2023-02-15T14:26:02.436Z,100983.88
2023-02-15T14:28:32.423Z,100975.44
2023-02-15T14:31:00.444Z,100980.38
2023-02-15T14:33:34.488Z,100980.16
2023-02-15T14:36:02.464Z,100986.56
2023-02-15T14:38:41.166Z,100980.94
2023-02-15T14:41:11.273Z,100982.87
2023-02-15T14:43:38.427Z,100985.47
2023-02-15T14:46:11.230Z,100984.00
2023-02-15T14:48:57.584Z,100972.69
2023-02-15T14:51:50.388Z,100976.97
2023-02-15T14:54:18.144Z,100970.66
2023-02-15T14:56:45.940Z,100977.91
2023-02-15T14:59:13.062Z,100970.69
2023-02-15T15:01:40.686Z,100972.00
2023-02-15T15:04:12.867Z,100971.94
2023-02-15T15:06:41.998Z,100963.66
2023-02-15T15:09:23.170Z,100959.19
2023-02-15T15:11:51.093Z,100960.22
2023-02-15T15:14:40.308Z,100954.56
2023-02-15T15:17:07.993Z,100951.75
2023-02-15T15:19:51.999Z,100957.12
2023-02-15T15:22:20.758Z,100959.75
2023-02-15T15:24:52.569Z,100964.34
2023-02-15T15:27:44.282Z,100956.03
2023-02-15T15:30:14.376Z,100951.22
2023-02-15T15:32:48.101Z,100955.44
2023-02-15T15:35:15.497Z,100953.34
2023-02-15T15:38:01.671Z,100959.37
2023-02-15T15:40:29.276Z,100957.94
2023-02-15T15:43:05.636Z,100956.09
2023-02-15T15:45:51.940Z,100954.88
2023-02-15T15:48:25.333Z,100954.63
2023-02-15T15:50:57.568Z,100955.09
2023-02-15T15:53:25.192Z,100950.59
2023-02-15T15:55:55.425Z,100955.16
2023-02-15T15:58:22.712Z,100952.63
2023-02-15T16:00:53.641Z,100945.91
2023-02-15T16:03:22.247Z,100946.31
2023-02-15T16:05:53.910Z,100946.19
2023-02-15T16:08:28.746Z,100944.75
2023-02-15T16:10:56.132Z,100942.72
2023-02-15T16:13:23.689Z,100940.75
2023-02-15T16:15:53.270Z,100937.75
2023-02-15T16:18:21.777Z,100934.25
2023-02-15T16:20:55.902Z,100945.53
2023-02-15T16:23:41.840Z,100947.12
2023-02-15T16:26:18.779Z,100939.31
2023-02-15T16:28:52.762Z,100946.91
2023-02-15T16:31:20.819Z,100945.00
2023-02-15T16:33:48.446Z,100948.28
2023-02-15T16:36:24.760Z,100948.81
2023-02-15T16:38:52.186Z,100951.78
2023-02-15T16:41:19.472Z,100953.09
2023-02-15T16:43:47.189Z,100951.28
2023-02-15T16:46:16.936Z,100953.09
2023-02-15T16:48:44.567Z,100949.78
2023-02-15T16:51:11.897Z,100950.81
2023-02-15T16:53:39.565Z,100950.44
2023-02-15T16:56:06.961Z,100951.75
2023-02-15T16:58:38.462Z,100948.78
2023-02-15T17:01:07.398Z,100951.47
2023-02-15T17:03:37.156Z,100950.44
2023-02-15T17:06:04.992Z,100960.09
2023-02-15T17:08:32.541Z,100961.41
2023-02-15T17:10:59.806Z,100956.22
2023-02-15T17:13:27.512Z,100953.00
2023-02-15T17:16:01.482Z,100955.03
2023-02-15T17:18:49.475Z,100954.19
2023-02-15T17:21:21.362Z,100953.47
2023-02-15T17:23:49.802Z,100953.97
2023-02-15T17:26:25.356Z,100960.88
2023-02-15T17:28:53.851Z,100958.84
2023-02-15T17:31:22.058Z,100963.53
2023-02-15T17:33:49.890Z,100947.59
2023-02-15T17:36:20.306Z,100948.66
2023-02-15T17:39:10.017Z,100947.41
2023-02-15T17:41:38.751Z,100943.84
2023-02-15T17:44:09.293Z,100950.94
2023-02-15T17:46:37.073Z,100938.03
2023-02-15T17:49:04.477Z,100940.34
2023-02-15T17:51:32.293Z,100944.03
2023-02-15T17:54:18.166Z,100936.16
2023-02-15T17:56:45.917Z,100942.53
2023-02-15T17:59:15.184Z,100940.94
2023-02-15T18:02:07.256Z,100951.03
2023-02-15T18:04:53.762Z,100948.63
2023-02-15T18:07:39.613Z,100952.50
2023-02-15T18:10:35.990Z,100952.88
2023-02-15T18:13:03.439Z,100944.78
2023-02-15T18:15:33.555Z,100946.63
2023-02-15T18:18:01.030Z,100952.66
2023-02-15T18:20:34.238Z,100948.19
2023-02-15T18:23:02.270Z,100945.69
2023-02-15T18:25:29.839Z,100945.37
2023-02-15T18:27:57.114Z,100942.28
2023-02-15T18:30:26.836Z,100938.28
2023-02-15T18:32:56.728Z,100937.75
2023-02-15T18:35:24.701Z,100935.03
2023-02-15T18:37:52.731Z,100941.78
2023-02-15T18:40:21.100Z,100938.66
2023-02-15T18:42:49.492Z,100943.78
2023-02-15T18:45:21.108Z,100935.97
2023-02-15T18:47:49.522Z,100942.09
2023-02-15T18:50:18.302Z,100950.16
2023-02-15T18:52:46.692Z,100940.66
2023-02-15T18:55:18.045Z,100934.44
2023-02-15T18:57:46.062Z,100930.06
2023-02-15T19:00:17.630Z,100938.66
2023-02-15T19:02:45.774Z,100936.09
2023-02-15T19:05:13.604Z,100935.47
2023-02-15T19:07:41.241Z,100941.22
2023-02-15T19:10:09.080Z,100936.59
2023-02-15T19:12:36.740Z,100939.91
2023-02-15T19:15:04.155Z,100940.94
2023-02-15T19:17:31.595Z,100943.44
2023-02-15T19:19:59.256Z,100937.91
2023-02-15T19:22:27.463Z,100939.94
2023-02-15T19:24:57.479Z,100934.22
2023-02-15T19:27:32.066Z,100943.84
2023-02-15T19:30:01.060Z,100932.28
2023-02-15T19:32:31.222Z,100934.44
2023-02-15T19:34:58.622Z,100934.59
2023-02-15T19:37:33.945Z,100943.59
2023-02-15T19:40:02.019Z,100936.19
2023-02-15T19:42:29.401Z,100944.12
2023-02-15T19:44:56.952Z,100939.81
2023-02-15T19:47:24.712Z,100938.16
2023-02-15T19:49:52.062Z,100935.84
2023-02-15T19:52:20.526Z,100936.81
2023-02-15T19:54:48.233Z,100936.88
2023-02-15T19:57:15.997Z,100938.84
2023-02-15T19:59:43.390Z,100936.94
2023-02-15T20:02:13.607Z,100932.81
2023-02-15T20:04:41.384Z,100931.16
2023-02-15T20:07:13.884Z,100935.44
2023-02-15T20:09:41.594Z,100934.31
2023-02-15T20:12:16.565Z,100927.41
2023-02-15T20:14:44.246Z,100932.56
2023-02-15T20:17:12.733Z,100935.16
2023-02-15T20:19:41.613Z,100932.66
2023-02-15T20:22:18.117Z,100930.31
2023-02-15T20:24:45.595Z,100929.78
2023-02-15T20:27:17.161Z,100920.47
2023-02-15T20:29:44.514Z,100927.00
2023-02-15T20:32:12.373Z,100932.09
2023-02-15T20:34:41.196Z,100929.78
2023-02-15T20:37:09.649Z,100926.44
2023-02-15T20:39:37.198Z,100920.09
2023-02-15T20:42:05.310Z,100928.87
2023-02-15T20:44:34.532Z,100924.25
2023-02-15T20:47:02.762Z,100926.84
2023-02-15T20:49:30.459Z,100926.66
2023-02-15T20:51:58.398Z,100927.59
2023-02-15T20:54:26.799Z,100921.16
2023-02-15T20:56:54.552Z,100922.09
2023-02-15T20:59:23.492Z,100925.84
2023-02-15T21:01:51.262Z,100923.31
2023-02-15T21:04:19.864Z,100920.59
2023-02-15T21:06:47.185Z,100917.56
2023-02-15T21:09:16.210Z,100918.53
2023-02-15T21:11:44.925Z,100920.63
2023-02-15T21:14:18.871Z,100911.28
2023-02-15T21:16:46.867Z,100912.44
2023-02-15T21:19:18.467Z,100916.00
2023-02-15T21:21:46.786Z,100917.63
2023-02-15T21:24:32.382Z,100914.53
2023-02-15T21:27:00.777Z,100926.03
2023-02-15T21:29:28.644Z,100916.44
2023-02-15T21:31:58.465Z,100917.34
2023-02-15T21:34:26.227Z,100920.03
2023-02-15T21:36:53.559Z,100911.53
2023-02-15T21:39:22.194Z,100911.66
2023-02-15T21:42:08.876Z,100915.13
2023-02-15T21:44:54.989Z,100920.12
2023-02-15T21:47:43.331Z,100922.53
2023-02-15T21:50:31.829Z,100916.31
2023-02-15T21:52:59.489Z,100923.66
2023-02-15T21:55:26.709Z,100919.78
2023-02-15T21:57:55.094Z,100912.81
2023-02-15T22:00:23.264Z,100910.06
2023-02-15T22:02:54.378Z,100911.59
2023-02-15T22:05:31.593Z,100911.97
2023-02-15T22:07:59.373Z,100908.34
2023-02-15T22:10:27.014Z,100911.94
2023-02-15T22:12:54.186Z,100907.34
2023-02-15T22:15:22.612Z,100909.53
2023-02-15T22:17:50.040Z,100908.00
2023-02-15T22:20:18.970Z,100914.19
2023-02-15T22:22:46.891Z,100913.59
2023-02-15T22:25:14.838Z,100909.75
2023-02-15T22:27:42.045Z,100909.13
2023-02-15T22:30:20.478Z,100911.28
2023-02-15T22:32:48.077Z,100912.94
2023-02-15T22:35:26.129Z,100915.63
2023-02-15T22:37:53.259Z,100916.19
2023-02-15T22:40:20.751Z,100927.22
2023-02-15T22:42:49.017Z,100928.72
2023-02-15T22:45:20.324Z,100922.38
2023-02-15T22:47:48.175Z,100930.94
2023-02-15T22:50:15.360Z,100918.00
2023-02-15T22:52:42.487Z,100915.47
2023-02-15T22:55:10.045Z,100918.00
2023-02-15T22:57:37.396Z,100922.13
2023-02-15T23:00:06.324Z,100913.34
2023-02-15T23:02:33.868Z,100915.72
2023-02-15T23:05:01.335Z,100916.22
2023-02-15T23:07:28.742Z,100923.84
2023-02-15T23:09:56.175Z,100913.41
2023-02-15T23:12:49.108Z,100913.47
2023-02-15T23:15:16.558Z,100915.91
2023-02-15T23:17:43.738Z,100914.94
2023-02-15T23:20:15.223Z,100917.44
2023-02-15T23:22:43.422Z,100912.28
2023-02-15T23:25:11.223Z,100911.34
2023-02-15T23:27:56.858Z,100905.09
2023-02-15T23:30:24.477Z,100910.56
2023-02-15T23:32:54.477Z,100909.09
2023-02-15T23:35:21.618Z,100914.47
2023-02-15T23:37:49.014Z,100908.06
2023-02-15T23:40:35.751Z,100906.22
2023-02-15T23:43:03.298Z,100904.94
2023-02-15T23:45:30.447Z,100901.94
2023-02-15T23:48:16.396Z,100897.66
2023-02-15T23:50:43.824Z,100894.84
2023-02-15T23:53:10.983Z,100886.44
2023-02-15T23:55:38.736Z,100890.13
2023-02-15T23:58:06.649Z,100887.78
